Airfield :
LOGIN :

Register | Disclaimer

   EN    FR    IT 

 










Legend :    VFR   Marginal VFR   IFR   Intensive IFR   Very Intensive IFR
Visi :
Ceiling :
>= 8 km
>= 3000ft
5 to 8 km
1000 to 3000 ft
1500m to 5 km
500 to 1000 ft
800 to 1500m
200 to 500 ft
< 800m
< 200 ft
Symbols :   Thunderstorms  Fog  Heavy snow  Heavy precipitations  Wind > 20 kt
SIGMETs :     Misc.  Thunderstorms  Icing  Turbulence  Mountain Waves  Volcanic Ashes






- Airport Elevation : 2119 ft


LERL - Central

CURRENT METAR :
  • 291000Z 27014KT 9999 FEW020 15/08 Q1011

EXPIRED METARs :
  • 290930Z 26014KT 9999 FEW020 14/08 Q1011
  • 290900Z 26014KT 9999 FEW020 13/08 Q1011
  • 290830Z 25012KT 210V280 9999 FEW017 13/08 Q1011
  • 290800Z 26012KT 230V290 9999 FEW015 13/09 Q1011

TAF TAF LERL
Valid from the 29 at 09:00 until the 30 at 09:00 UTC


290800Z 2909/3009 27010KT CAVOK TX21/2915Z TN08/3006Z
PROB30
TEMPO 2913/2917 27016G26KT
PROB40
TEMPO 2912/2921 RA SCT040
BECMG 2917/2918 VRB05KT



MET'MAP, your aeronautical weather chart ! - Copyright ORBIFLY December 2007 - Disclaimer

ORBIFLY MET'MAP TEAM :

Programming & Development : Alexandra Zaïnal
Original concept : Baudouin d'Aumeries
Technical & hardware support : Manuel Goepfert
Assistance : Marc-Olivier Méhu




SOURCES & CREDITS :

   NOAA